createdAt,value
2019-03-17T00:00:15.692Z,993.5
2019-03-17T00:05:15.474Z,993.4
2019-03-17T00:10:14.878Z,993.4
2019-03-17T00:15:15.168Z,993.2
2019-03-17T00:20:14.918Z,993.2
2019-03-17T00:25:15.386Z,993.1
2019-03-17T00:30:15.772Z,993.1
2019-03-17T00:35:15.226Z,992.9
2019-03-17T00:40:15.675Z,992.9
2019-03-17T00:45:15.116Z,992.8
2019-03-17T00:50:14.790Z,992.8
2019-03-17T00:55:15.537Z,992.8
2019-03-17T01:00:15.122Z,992.8
2019-03-17T01:05:14.951Z,992.5
2019-03-17T01:10:15.413Z,992.5
2019-03-17T01:15:15.701Z,992.4
2019-03-17T01:20:15.208Z,992.4
2019-03-17T01:25:15.793Z,992.3
2019-03-17T01:30:15.047Z,992.3
2019-03-17T01:35:15.925Z,991.9
2019-03-17T01:40:15.400Z,991.9
2019-03-17T01:45:15.847Z,991.8
2019-03-17T01:50:15.451Z,991.8
2019-03-17T01:55:15.021Z,991.7
2019-03-17T02:00:15.672Z,991.7
2019-03-17T02:05:21.912Z,991.5
2019-03-17T02:10:15.863Z,991.5
2019-03-17T02:15:15.196Z,991.5
2019-03-17T02:20:15.024Z,991.5
2019-03-17T02:25:15.775Z,991.4
2019-03-17T02:30:15.194Z,991.4
2019-03-17T02:35:15.833Z,991.3
2019-03-17T02:40:15.321Z,991.3
2019-03-17T02:45:15.727Z,991.2
2019-03-17T02:50:15.263Z,991.2
2019-03-17T02:55:15.608Z,991
2019-03-17T03:00:18.451Z,991
2019-03-17T03:05:15.091Z,990.9
2019-03-17T03:10:15.785Z,990.9
2019-03-17T03:15:15.254Z,990.8
2019-03-17T03:20:15.763Z,990.8
2019-03-17T03:25:15.170Z,990.6
2019-03-17T03:30:15.044Z,990.6
2019-03-17T03:35:15.523Z,990.4
2019-03-17T03:40:16.011Z,990.4
2019-03-17T03:45:15.194Z,990.3
2019-03-17T03:50:15.588Z,990.3
2019-03-17T03:55:16.013Z,990.2
2019-03-17T04:00:16.014Z,990.2
2019-03-17T04:05:15.769Z,989.9
2019-03-17T04:10:15.758Z,989.9
2019-03-17T04:15:15.058Z,989.9
2019-03-17T04:20:15.411Z,989.9
2019-03-17T04:25:15.697Z,989.9
2019-03-17T04:30:16.118Z,989.9
2019-03-17T04:35:15.774Z,989.8
2019-03-17T04:40:15.123Z,989.8
2019-03-17T04:45:15.410Z,989.8
2019-03-17T04:50:15.790Z,989.8
2019-03-17T04:55:15.163Z,989.8
2019-03-17T05:00:15.716Z,989.8
2019-03-17T05:05:15.698Z,989.7
2019-03-17T05:10:15.275Z,989.7
2019-03-17T05:15:15.715Z,989.6
2019-03-17T05:20:15.305Z,989.6
2019-03-17T05:25:15.748Z,989.6
2019-03-17T05:30:15.676Z,989.6
2019-03-17T05:35:15.805Z,989.4
2019-03-17T05:40:16.099Z,989.4
2019-03-17T05:45:15.265Z,989.4
2019-03-17T05:50:15.509Z,989.4
2019-03-17T05:55:16.104Z,989.4
2019-03-17T06:00:15.384Z,989.4
2019-03-17T06:05:15.877Z,989.7
2019-03-17T06:10:15.601Z,989.7
2019-03-17T06:15:15.972Z,989.8
2019-03-17T06:20:15.372Z,989.8
2019-03-17T06:25:15.720Z,989.8
2019-03-17T06:30:15.829Z,989.8
2019-03-17T06:35:16.103Z,989.8
2019-03-17T06:40:15.440Z,989.8
2019-03-17T06:45:15.950Z,989.8
2019-03-17T06:50:17.218Z,989.8
2019-03-17T06:55:15.340Z,989.8
2019-03-17T07:00:15.554Z,989.8
2019-03-17T07:05:16.086Z,989.8
2019-03-17T07:10:15.954Z,989.8
2019-03-17T07:15:16.126Z,989.8
2019-03-17T07:20:15.717Z,989.8
2019-03-17T07:25:16.075Z,989.8
2019-03-17T07:30:15.541Z,989.8
2019-03-17T07:35:16.127Z,990.7
2019-03-17T07:40:15.641Z,990.7
2019-03-17T07:45:16.177Z,990.9
2019-03-17T07:50:15.493Z,990.9
2019-03-17T07:55:16.085Z,991.1
2019-03-17T08:00:15.297Z,991.1
2019-03-17T08:05:15.812Z,991.5
2019-03-17T08:10:15.822Z,991.5
2019-03-17T08:15:16.083Z,991.7
2019-03-17T08:20:15.375Z,991.7
2019-03-17T08:25:15.552Z,991.8
2019-03-17T08:30:15.706Z,991.8
2019-03-17T08:35:15.968Z,992
2019-03-17T08:40:16.310Z,992
2019-03-17T08:45:15.464Z,992.1
2019-03-17T08:50:15.828Z,992.1
2019-03-17T08:55:15.509Z,992.2
2019-03-17T09:00:15.748Z,992.2
2019-03-17T09:05:16.237Z,992.4
2019-03-17T09:10:15.867Z,992.4
2019-03-17T09:15:16.197Z,992.6
2019-03-17T09:20:15.468Z,992.6
2019-03-17T09:25:16.003Z,992.8
2019-03-17T09:30:16.260Z,992.8
2019-03-17T09:35:15.525Z,992.8
2019-03-17T09:40:16.009Z,992.8
2019-03-17T09:45:16.235Z,992.9
2019-03-17T09:50:15.608Z,992.9
2019-03-17T09:55:15.833Z,993
2019-03-17T10:00:16.220Z,993
2019-03-17T10:05:15.663Z,993.4
2019-03-17T10:10:16.585Z,993.4
2019-03-17T10:15:15.819Z,993.3
2019-03-17T10:20:16.180Z,993.3
2019-03-17T10:25:16.453Z,993.2
2019-03-17T10:30:15.821Z,993.2
2019-03-17T10:35:16.500Z,993.4
2019-03-17T10:40:16.265Z,993.4
2019-03-17T10:45:15.612Z,993.5
2019-03-17T10:50:16.026Z,993.5
2019-03-17T10:55:16.298Z,993.5
2019-03-17T11:00:15.579Z,993.5
2019-03-17T11:05:16.041Z,993.8
2019-03-17T11:10:16.239Z,993.8
2019-03-17T11:15:16.369Z,994
2019-03-17T11:20:15.714Z,994
2019-03-17T11:25:16.077Z,994.1
2019-03-17T11:30:15.519Z,994.1
2019-03-17T11:35:15.913Z,994.1
2019-03-17T11:40:16.410Z,994.1
2019-03-17T11:45:15.767Z,994.1
2019-03-17T11:50:16.144Z,994.1
2019-03-17T11:55:16.450Z,994.1
2019-03-17T12:00:15.914Z,994.1
2019-03-17T12:05:16.513Z,994.1
2019-03-17T12:10:16.207Z,994.1
2019-03-17T12:15:16.489Z,994.1
2019-03-17T12:20:16.060Z,994.1
2019-03-17T12:25:16.365Z,994.1
2019-03-17T12:30:16.295Z,994.1
2019-03-17T12:35:16.633Z,994.5
2019-03-17T12:40:16.221Z,994.5
2019-03-17T12:45:16.785Z,994.5
2019-03-17T12:50:16.049Z,994.5
2019-03-17T12:55:16.419Z,994.5
2019-03-17T13:00:15.807Z,994.5
2019-03-17T13:05:16.298Z,994.7
2019-03-17T13:10:16.527Z,994.7
2019-03-17T13:15:16.379Z,994.8
2019-03-17T13:20:15.956Z,994.8
2019-03-17T13:25:16.262Z,994.8
2019-03-17T13:30:15.720Z,994.8
2019-03-17T13:35:16.337Z,994.8
2019-03-17T13:40:28.118Z,994.8
2019-03-17T13:45:16.304Z,994.9
2019-03-17T13:50:15.741Z,994.9
2019-03-17T13:55:16.033Z,995
2019-03-17T14:00:16.234Z,995
2019-03-17T14:05:16.568Z,995.2
2019-03-17T14:10:16.409Z,995.2
2019-03-17T14:15:16.370Z,995.3
2019-03-17T14:20:15.730Z,995.3
2019-03-17T14:25:16.000Z,995.3
2019-03-17T14:30:16.425Z,995.3
2019-03-17T14:35:16.126Z,995.6
2019-03-17T14:40:16.593Z,995.6
2019-03-17T14:45:15.885Z,995.7
2019-03-17T14:50:16.413Z,995.7
2019-03-17T14:55:15.779Z,995.7
2019-03-17T15:00:16.072Z,995.7
2019-03-17T15:05:15.933Z,995.8
2019-03-17T15:10:16.660Z,995.8
2019-03-17T15:15:16.336Z,996.2
2019-03-17T15:20:15.830Z,996.2
2019-03-17T15:25:16.161Z,996.5
2019-03-17T15:30:16.157Z,996.5
2019-03-17T15:35:16.521Z,996.3
2019-03-17T15:40:15.871Z,996.3
2019-03-17T15:45:16.167Z,996.5
2019-03-17T15:50:16.709Z,996.5
2019-03-17T15:55:16.079Z,996.6
2019-03-17T16:00:24.918Z,996.6
2019-03-17T16:05:16.631Z,997
2019-03-17T16:10:16.404Z,997
2019-03-17T16:15:16.351Z,997
2019-03-17T16:20:15.848Z,997
2019-03-17T16:25:16.250Z,997.1
2019-03-17T16:30:16.448Z,997.1
2019-03-17T16:35:16.756Z,997.3
2019-03-17T16:40:16.107Z,997.3
2019-03-17T16:45:16.539Z,997.4
2019-03-17T16:50:16.237Z,997.4
2019-03-17T16:55:16.522Z,997.5
2019-03-17T17:00:19.098Z,997.5
2019-03-17T17:05:16.863Z,997.7
2019-03-17T17:10:16.766Z,997.7
2019-03-17T17:15:15.981Z,997.7
2019-03-17T17:20:16.555Z,997.7
2019-03-17T17:25:16.769Z,997.7
2019-03-17T17:30:16.100Z,997.7
2019-03-17T17:35:16.807Z,997.8
2019-03-17T17:40:16.343Z,997.8
2019-03-17T17:45:16.876Z,998.1
2019-03-17T17:50:16.663Z,998.1
2019-03-17T17:55:16.164Z,998.2
2019-03-17T18:00:16.636Z,998.2
2019-03-17T18:05:16.161Z,998.3
2019-03-17T18:10:16.780Z,998.3
2019-03-17T18:15:16.754Z,998.3
2019-03-17T18:20:16.591Z,998.3
2019-03-17T18:25:16.101Z,998.4
2019-03-17T18:30:16.605Z,998.4
2019-03-17T18:35:17.034Z,998.5
2019-03-17T18:40:16.398Z,998.5
2019-03-17T18:45:16.852Z,998.6
2019-03-17T18:50:20.401Z,998.6
2019-03-17T18:55:16.319Z,998.6
2019-03-17T19:00:16.699Z,998.6
2019-03-17T19:05:19.904Z,998.8
2019-03-17T19:10:16.744Z,998.8
2019-03-17T19:15:16.369Z,998.9
2019-03-17T19:20:16.814Z,998.9
2019-03-17T19:25:16.185Z,999
2019-03-17T19:30:16.647Z,999
2019-03-17T19:35:17.150Z,999.1
2019-03-17T19:40:16.594Z,999.1
2019-03-17T19:45:16.885Z,999.1
2019-03-17T19:50:16.522Z,999.1
2019-03-17T19:55:16.900Z,999.1
2019-03-17T20:00:16.498Z,999.1
2019-03-17T20:05:16.806Z,999.3
2019-03-17T20:10:16.356Z,999.3
2019-03-17T20:15:16.405Z,999.3
2019-03-17T20:20:16.845Z,999.3
2019-03-17T20:25:17.103Z,999.3
2019-03-17T20:30:16.480Z,999.3
2019-03-17T20:35:16.912Z,999.3
2019-03-17T20:40:16.350Z,999.3
2019-03-17T20:45:20.056Z,999.3
2019-03-17T20:50:16.700Z,999.3
2019-03-17T20:55:16.284Z,999.3
2019-03-17T21:00:16.667Z,999.3
2019-03-17T21:05:17.193Z,999.4
2019-03-17T21:10:16.882Z,999.4
2019-03-17T21:15:17.121Z,999.4
2019-03-17T21:20:16.691Z,999.4
2019-03-17T21:25:16.941Z,999.4
2019-03-17T21:30:16.457Z,999.4
2019-03-17T21:35:16.728Z,999.4
2019-03-17T21:40:17.202Z,999.4
2019-03-17T21:45:16.468Z,999.5
2019-03-17T21:50:16.495Z,999.5
2019-03-17T21:55:16.809Z,999.5
2019-03-17T22:00:17.075Z,999.5
2019-03-17T22:05:16.449Z,999.5
2019-03-17T22:10:17.208Z,999.5
2019-03-17T22:15:16.376Z,999.5
2019-03-17T22:20:16.781Z,999.5
2019-03-17T22:25:17.123Z,999.5
2019-03-17T22:30:16.510Z,999.5
2019-03-17T22:35:16.700Z,999.5
2019-03-17T22:40:17.239Z,999.5
2019-03-17T22:45:16.642Z,999.7
2019-03-17T22:50:16.506Z,999.7
2019-03-17T22:55:17.014Z,999.8
2019-03-17T23:00:16.601Z,999.8
2019-03-17T23:05:16.690Z,999.8
2019-03-17T23:10:16.983Z,999.8
2019-03-17T23:15:17.291Z,999.9
2019-03-17T23:20:16.432Z,999.9
2019-03-17T23:25:16.866Z,999.9
2019-03-17T23:30:16.516Z,999.9
2019-03-17T23:35:16.885Z,999.8
2019-03-17T23:40:17.308Z,999.8
2019-03-17T23:45:16.575Z,999.8
2019-03-17T23:50:16.920Z,999.8
2019-03-17T23:55:17.234Z,999.8
